Sirios Cement IV — 5BQY4 — position and weather

sailwx.info

Track history (hours):
 
Tides and Currents Weather Stations Pressure Air Temp Water Temp Dewpoint Dewpoint Depression Visibility Wind Speed Wind Dir Waves Ship Positions

Sirios Cement IV

Last reported at 2017-Sep-18 14:25 UTC. Time now 2017-Sep-19 22:38 UTC.
Position N 37°14' E 025°51'.

Length 134 m; draft 8.5 m.

Type: Cargo ship. MMSI: 212754000.

Date/timePositionNaut miles runAvg speedWind from/ knotsBaromVisibWave heightAir tempDewpointWater temp
2017-Sep-18 14:25N 37°14' E 025°51'410.4
2017-Sep-18 14:01N 37°18' E 025°48'610.2
2017-Sep-18 13:27N 37°22' E 025°43'510.8
2017-Sep-18 12:59N 37°26' E 025°39'510.6
2017-Sep-18 12:31N 37°30' E 025°35'510.5
2017-Sep-18 12:00N 37°34' E 025°30'510.6
2017-Sep-18 11:30N 37°38' E 025°26'510.6
2017-Sep-18 11:01N 37°42' E 025°22'510.7
2017-Sep-18 10:30N 37°46' E 025°17'610.9
2017-Sep-18 09:59N 37°50' E 025°13'6611.6
2017-Sep-18 04:14N 38°40' E 024°17'  
2017-Sep-15 11:56N 37°49' E 025°14'511.0
2017-Sep-15 11:30N 37°45' E 025°18'510.9
2017-Sep-15 11:00N 37°41' E 025°23'510.7
2017-Sep-15 10:30N 37°37' E 025°27'510.8
2017-Sep-15 10:00N 37°33' E 025°32'510.6
2017-Sep-15 09:30N 37°29' E 025°36'710.9
2017-Sep-15 08:52N 37°23' E 025°42'411.2
2017-Sep-15 08:30N 37°20' E 025°45'611.2
2017-Sep-15 08:00N 37°16' E 025°49'25111.3
2017-Sep-14 09:44N 35°28' E 030°31'511.5
2017-Sep-14 09:16N 35°26' E 030°37'411.7
2017-Sep-14 08:54N 35°24' E 030°42'2311.9
2017-Sep-14 07:00N 35°13' E 031°06'912.3
2017-Sep-14 06:16N 35°09' E 031°16'312.4
2017-Sep-14 06:00N 35°07' E 031°19'612.3
2017-Sep-14 05:30N 35°04' E 031°26'1712.1
2017-Sep-14 04:08N 34°56' E 031°44'111.8
2017-Sep-14 04:00N 34°55' E 031°45'811.8
2017-Sep-14 03:18N 34°51' E 031°54'611.7
2017-Sep-14 02:48N 34°49' E 032°00'411.6
2017-Sep-14 02:29N 34°47' E 032°04'1911.2
2017-Sep-14 00:49N 34°38' E 032°24'310.7
2017-Sep-14 00:30N 34°36' E 032°27'510.7
2017-Sep-14 00:00N 34°32' E 032°32'510.7
2017-Sep-13 23:30N 34°28' E 032°36'510.7
2017-Sep-13 23:00N 34°24' E 032°41'510.7
2017-Sep-13 22:30N 34°20' E 032°45'510.7
2017-Sep-13 22:00N 34°16' E 032°50'510.6
2017-Sep-13 21:30N 34°13' E 032°54'510.5
2017-Sep-13 21:00N 34°09' E 032°59'510.5
2017-Sep-13 20:30N 34°05' E 033°03'510.5
2017-Sep-13 20:00N 34°01' E 033°08'510.4
2017-Sep-13 19:30N 33°58' E 033°12'510.6
2017-Sep-13 19:00N 33°54' E 033°17'510.6
2017-Sep-13 18:30N 33°50' E 033°21'510.6
2017-Sep-13 18:00N 33°46' E 033°26'510.6
2017-Sep-13 17:30N 33°43' E 033°30'510.8
2017-Sep-13 17:00N 33°39' E 033°35'510.9
2017-Sep-13 16:30N 33°35' E 033°39'510.9
2017-Sep-13 16:00N 33°31' E 033°44'510.8
2017-Sep-13 15:30N 33°27' E 033°48'510.9
2017-Sep-13 15:00N 33°23' E 033°53'610.9
2017-Sep-13 14:30N 33°19' E 033°57'511.1
2017-Sep-13 14:00N 33°15' E 034°02'611.2
2017-Sep-13 13:30N 33°11' E 034°07'611.4
2017-Sep-13 13:00N 33°07' E 034°11'611.7
2017-Sep-13 12:30N 33°03' E 034°16'611.3
2017-Sep-13 12:00N 32°60' E 034°22'611.6
2017-Sep-13 11:30N 32°58' E 034°29'611.6
2017-Sep-13 10:59N 32°57' E 034°35'611.6
2017-Sep-13 10:29N 32°55' E 034°42'611.6
2017-Sep-13 10:00N 32°54' E 034°49'611.2
2017-Sep-13 09:27N 32°52' E 034°56'6 0.3
2017-Sep-12 09:25N 32°49' E 035°02'0 0.0
2017-Sep-12 08:58N 32°49' E 035°02'4 0.4
2017-Sep-11 21:08N 32°52' E 034°59'1 6.3
2017-Sep-11 21:00N 32°53' E 034°58'2 4.0
2017-Sep-11 20:30N 32°54' E 034°59'0 0.1
2017-Sep-11 19:53N 32°54' E 034°59'0 0.0
2017-Sep-11 18:49N 32°54' E 034°59'1 0.0
2017-Sep-10 11:53N 32°54' E 034°59'4 9.6
2017-Sep-10 11:30N 32°53' E 034°55'910.5
2017-Sep-10 10:40N 32°55' E 034°44'410.2
2017-Sep-10 10:17N 32°56' E 034°40'510.3
2017-Sep-10 09:48N 32°57' E 034°34'3610.2
2017-Sep-10 06:16N 33°18' E 033°59'711.2
2017-Sep-10 05:41N 33°23' E 033°54'311.3
2017-Sep-10 05:26N 33°25' E 033°51'611.6
2017-Sep-10 04:57N 33°29' E 033°47'511.6
2017-Sep-10 04:29N 33°33' E 033°42'6711.2
2017-Sep-09 22:33N 34°20' E 032°46'111.3
2017-Sep-09 22:30N 34°20' E 032°45'611.1
2017-Sep-09 22:00N 34°24' E 032°41'611.3
2017-Sep-09 21:30N 34°28' E 032°36'611.4
2017-Sep-09 21:00N 34°32' E 032°31'4010.9
2017-Sep-09 17:17N 34°54' E 031°49'2611.3
2017-Sep-09 15:01N 35°06' E 031°21'011.7
2017-Sep-09 15:00N 35°06' E 031°21'611.7
2017-Sep-09 14:30N 35°09' E 031°15'1511.7
2017-Sep-09 13:12N 35°16' E 030°59'211.6
2017-Sep-09 13:00N 35°17' E 030°56'611.4
2017-Sep-09 12:30N 35°20' E 030°50'611.3
2017-Sep-09 12:00N 35°23' E 030°44'611.2
2017-Sep-09 11:30N 35°25' E 030°38'611.3
2017-Sep-09 11:00N 35°28' E 030°32'611.3
2017-Sep-09 10:26N 35°31' E 030°25'611.2
2017-Sep-09 09:54N 35°34' E 030°19'  
Track history (hours):
 
Tides and Currents Weather Stations Pressure Air Temp Water Temp Dewpoint Dewpoint Depression Visibility Wind Speed Wind Dir Waves Ship Positions

Sirios Cement IV

Last reported at 2017-Sep-18 14:25 UTC. Time now 2017-Sep-19 22:38 UTC.
Position N 37°14' E 025°51'.

Length 134 m; draft 8.5 m.

Type: Cargo ship. MMSI: 212754000.

Date/timePositionNaut miles runAvg speedWind from/ knotsBaromVisibWave heightAir tempDewpointWater temp
2017-Sep-18 14:25N 37°14' E 025°51'410.4
2017-Sep-18 14:01N 37°18' E 025°48'610.2
2017-Sep-18 13:27N 37°22' E 025°43'510.8
2017-Sep-18 12:59N 37°26' E 025°39'510.6
2017-Sep-18 12:31N 37°30' E 025°35'510.5
2017-Sep-18 12:00N 37°34' E 025°30'510.6
2017-Sep-18 11:30N 37°38' E 025°26'510.6
2017-Sep-18 11:01N 37°42' E 025°22'510.7
2017-Sep-18 10:30N 37°46' E 025°17'610.9
2017-Sep-18 09:59N 37°50' E 025°13'6611.6
2017-Sep-18 04:14N 38°40' E 024°17'  
2017-Sep-15 11:56N 37°49' E 025°14'511.0
2017-Sep-15 11:30N 37°45' E 025°18'510.9
2017-Sep-15 11:00N 37°41' E 025°23'510.7
2017-Sep-15 10:30N 37°37' E 025°27'510.8
2017-Sep-15 10:00N 37°33' E 025°32'510.6
2017-Sep-15 09:30N 37°29' E 025°36'710.9
2017-Sep-15 08:52N 37°23' E 025°42'411.2
2017-Sep-15 08:30N 37°20' E 025°45'611.2
2017-Sep-15 08:00N 37°16' E 025°49'25111.3
2017-Sep-14 09:44N 35°28' E 030°31'511.5
2017-Sep-14 09:16N 35°26' E 030°37'411.7
2017-Sep-14 08:54N 35°24' E 030°42'2311.9
2017-Sep-14 07:00N 35°13' E 031°06'912.3
2017-Sep-14 06:16N 35°09' E 031°16'312.4
2017-Sep-14 06:00N 35°07' E 031°19'612.3
2017-Sep-14 05:30N 35°04' E 031°26'1712.1
2017-Sep-14 04:08N 34°56' E 031°44'111.8
2017-Sep-14 04:00N 34°55' E 031°45'811.8
2017-Sep-14 03:18N 34°51' E 031°54'611.7
2017-Sep-14 02:48N 34°49' E 032°00'411.6
2017-Sep-14 02:29N 34°47' E 032°04'1911.2
2017-Sep-14 00:49N 34°38' E 032°24'310.7
2017-Sep-14 00:30N 34°36' E 032°27'510.7
2017-Sep-14 00:00N 34°32' E 032°32'510.7
2017-Sep-13 23:30N 34°28' E 032°36'510.7
2017-Sep-13 23:00N 34°24' E 032°41'510.7
2017-Sep-13 22:30N 34°20' E 032°45'510.7
2017-Sep-13 22:00N 34°16' E 032°50'510.6
2017-Sep-13 21:30N 34°13' E 032°54'510.5
2017-Sep-13 21:00N 34°09' E 032°59'510.5
2017-Sep-13 20:30N 34°05' E 033°03'510.5
2017-Sep-13 20:00N 34°01' E 033°08'510.4
2017-Sep-13 19:30N 33°58' E 033°12'510.6
2017-Sep-13 19:00N 33°54' E 033°17'510.6
2017-Sep-13 18:30N 33°50' E 033°21'510.6
2017-Sep-13 18:00N 33°46' E 033°26'510.6
2017-Sep-13 17:30N 33°43' E 033°30'510.8
2017-Sep-13 17:00N 33°39' E 033°35'510.9
2017-Sep-13 16:30N 33°35' E 033°39'510.9
2017-Sep-13 16:00N 33°31' E 033°44'510.8
2017-Sep-13 15:30N 33°27' E 033°48'510.9
2017-Sep-13 15:00N 33°23' E 033°53'610.9
2017-Sep-13 14:30N 33°19' E 033°57'511.1
2017-Sep-13 14:00N 33°15' E 034°02'611.2
2017-Sep-13 13:30N 33°11' E 034°07'611.4
2017-Sep-13 13:00N 33°07' E 034°11'611.7
2017-Sep-13 12:30N 33°03' E 034°16'611.3
2017-Sep-13 12:00N 32°60' E 034°22'611.6
2017-Sep-13 11:30N 32°58' E 034°29'611.6
2017-Sep-13 10:59N 32°57' E 034°35'611.6
2017-Sep-13 10:29N 32°55' E 034°42'611.6
2017-Sep-13 10:00N 32°54' E 034°49'611.2
2017-Sep-13 09:27N 32°52' E 034°56'6 0.3
2017-Sep-12 09:25N 32°49' E 035°02'0 0.0
2017-Sep-12 08:58N 32°49' E 035°02'4 0.4
2017-Sep-11 21:08N 32°52' E 034°59'1 6.3
2017-Sep-11 21:00N 32°53' E 034°58'2 4.0
2017-Sep-11 20:30N 32°54' E 034°59'0 0.1
2017-Sep-11 19:53N 32°54' E 034°59'0 0.0
2017-Sep-11 18:49N 32°54' E 034°59'1 0.0
2017-Sep-10 11:53N 32°54' E 034°59'4 9.6
2017-Sep-10 11:30N 32°53' E 034°55'910.5
2017-Sep-10 10:40N 32°55' E 034°44'410.2
2017-Sep-10 10:17N 32°56' E 034°40'510.3
2017-Sep-10 09:48N 32°57' E 034°34'3610.2
2017-Sep-10 06:16N 33°18' E 033°59'711.2
2017-Sep-10 05:41N 33°23' E 033°54'311.3
2017-Sep-10 05:26N 33°25' E 033°51'611.6
2017-Sep-10 04:57N 33°29' E 033°47'511.6
2017-Sep-10 04:29N 33°33' E 033°42'6711.2
2017-Sep-09 22:33N 34°20' E 032°46'111.3
2017-Sep-09 22:30N 34°20' E 032°45'611.1
2017-Sep-09 22:00N 34°24' E 032°41'611.3
2017-Sep-09 21:30N 34°28' E 032°36'611.4
2017-Sep-09 21:00N 34°32' E 032°31'4010.9
2017-Sep-09 17:17N 34°54' E 031°49'2611.3
2017-Sep-09 15:01N 35°06' E 031°21'011.7
2017-Sep-09 15:00N 35°06' E 031°21'611.7
2017-Sep-09 14:30N 35°09' E 031°15'1511.7
2017-Sep-09 13:12N 35°16' E 030°59'211.6
2017-Sep-09 13:00N 35°17' E 030°56'611.4
2017-Sep-09 12:30N 35°20' E 030°50'611.3
2017-Sep-09 12:00N 35°23' E 030°44'611.2
2017-Sep-09 11:30N 35°25' E 030°38'611.3
2017-Sep-09 11:00N 35°28' E 030°32'611.3
2017-Sep-09 10:26N 35°31' E 030°25'611.2
2017-Sep-09 09:54N 35°34' E 030°19'  

Dump ship's entire track history